Time;durP1;ratioP1;P1;durP2;ratioP2;P2;SDS_P1;SDS_P2;PMS_P1;PMS_P2;Temp;Humidity;BMP_temperature;BMP_pressure;BME280_temperature;BME280_humidity;BME280_pressure;Samples;Min_cycle;Max_cycle;Signal;HPM_P1;HPM_P2
2023/10/12 00:01:59;;;;;;;3.28;1.77;;;23.60;54.00;;;;;;4997099;28;20026;-66
2023/10/12 00:04:26;;;;;;;3.10;1.80;;;23.60;54.00;;;;;;4998114;28;20030;-65
2023/10/12 00:06:51;;;;;;;2.78;1.80;;;23.60;54.00;;;;;;4996601;28;20018;-66
2023/10/12 00:09:20;;;;;;;2.75;1.67;;;23.50;53.90;;;;;;4996617;28;20370;-66
2023/10/12 00:11:57;;;;;;;2.80;1.65;;;23.50;53.90;;;;;;4999138;28;20026;-62
2023/10/12 00:14:27;;;;;;;2.65;1.75;;;23.60;54.00;;;;;;5003293;28;20028;-61
2023/10/12 00:16:53;;;;;;;2.50;1.67;;;23.50;53.90;;;;;;4999898;28;20102;-62
2023/10/12 00:19:20;;;;;;;2.80;1.70;;;23.50;53.90;;;;;;5002768;28;20113;-63
2023/10/12 00:21:46;;;;;;;2.75;1.70;;;23.50;53.90;;;;;;5001346;28;20065;-62
2023/10/12 00:24:13;;;;;;;2.55;1.60;;;23.50;53.90;;;;;;5003192;28;20053;-62
2023/10/12 00:26:42;;;;;;;2.88;1.73;;;23.50;53.90;;;;;;5001397;28;20075;-61
2023/10/12 00:29:08;;;;;;;2.70;1.65;;;23.50;53.90;;;;;;5000872;28;20026;-62
2023/10/12 00:31:37;;;;;;;2.25;1.55;;;23.50;53.90;;;;;;5001030;28;20421;-63
2023/10/12 00:34:03;;;;;;;2.47;1.60;;;23.50;53.90;;;;;;5002572;28;20022;-63
2023/10/12 00:36:29;;;;;;;2.33;1.60;;;23.50;53.90;;;;;;4999771;28;20072;-61
2023/10/12 00:38:56;;;;;;;3.40;1.73;;;23.50;53.90;;;;;;5000307;28;20103;-61
2023/10/12 00:41:24;;;;;;;3.30;1.70;;;23.50;53.90;;;;;;5001631;28;20032;-64
2023/10/12 00:43:57;;;;;;;4.32;1.80;;;23.50;53.90;;;;;;4999386;28;20030;-64
2023/10/12 00:49:40;;;;;;;2.83;1.75;;;23.50;53.80;;;;;;4999132;28;20034;-64
2023/10/12 00:51:37;;;;;;;2.80;1.60;;;23.50;53.80;;;;;;4996883;28;20125;-64
2023/10/12 00:54:04;;;;;;;2.55;1.75;;;23.50;53.80;;;;;;5000938;28;20173;-63
2023/10/12 00:56:30;;;;;;;2.53;1.67;;;23.50;53.80;;;;;;5001706;28;20038;-64
2023/10/12 00:58:56;;;;;;;2.50;1.77;;;23.50;53.80;;;;;;5002656;28;20034;-64
2023/10/12 01:01:23;;;;;;;2.88;1.80;;;23.50;53.80;;;;;;5000817;28;20708;-64
2023/10/12 01:03:50;;;;;;;2.80;1.80;;;23.50;53.80;;;;;;5001194;28;20015;-64
2023/10/12 01:08:50;;;;;;;3.03;1.95;;;23.50;53.80;;;;;;5001726;28;20029;-64
2023/10/12 01:11:33;;;;;;;3.05;1.67;;;23.50;53.80;;;;;;5000303;28;20141;-63
2023/10/12 01:16:54;;;;;;;3.08;1.60;;;23.50;53.80;;;;;;5000563;28;20034;-64
2023/10/12 01:19:23;;;;;;;2.67;1.60;;;23.50;53.80;;;;;;4998656;28;20343;-64
2023/10/12 01:22:12;;;;;;;2.30;1.52;;;23.50;53.80;;;;;;4999279;28;20454;-64
2023/10/12 01:24:43;;;;;;;3.30;1.60;;;23.50;53.80;;;;;;4999620;28;20465;-64
2023/10/12 01:27:12;;;;;;;2.80;1.70;;;23.50;53.80;;;;;;5002110;28;20026;-63
2023/10/12 01:29:38;;;;;;;2.65;1.85;;;23.50;53.80;;;;;;5002610;28;20127;-64
2023/10/12 01:34:39;;;;;;;2.67;1.58;;;23.50;53.80;;;;;;5001405;28;20079;-64
2023/10/12 01:37:20;;;;;;;2.72;1.70;;;23.50;53.70;;;;;;4997986;28;20019;-64
2023/10/12 01:39:55;;;;;;;2.95;1.65;;;23.50;53.80;;;;;;4999740;28;20528;-64
2023/10/12 01:42:21;;;;;;;2.50;1.60;;;23.50;53.70;;;;;;5000250;28;20018;-64
2023/10/12 01:44:47;;;;;;;2.63;1.63;;;23.50;54.30;;;;;;5003676;28;20091;-64
2023/10/12 01:47:15;;;;;;;3.05;1.90;;;23.50;53.80;;;;;;5002480;28;20371;-64
2023/10/12 01:49:41;;;;;;;3.33;1.60;;;23.40;53.70;;;;;;5000330;28;20087;-64
2023/10/12 01:52:08;;;;;;;2.60;1.75;;;23.50;53.80;;;;;;4998209;28;20516;-65
2023/10/12 01:54:42;;;;;;;2.40;1.67;;;23.40;53.70;;;;;;4998134;28;20414;-65
2023/10/12 01:57:08;;;;;;;2.83;1.80;;;23.50;53.70;;;;;;4998813;28;20101;-64
2023/10/12 01:59:34;;;;;;;2.53;1.48;;;23.50;53.80;;;;;;4998719;28;20034;-65
2023/10/12 02:02:07;;;;;;;2.90;1.83;;;23.40;53.70;;;;;;5001036;28;20116;-65
2023/10/12 02:04:39;;;;;;;2.40;1.60;;;23.40;53.70;;;;;;5014871;28;20044;-65
2023/10/12 02:07:05;;;;;;;2.70;1.77;;;23.40;53.70;;;;;;4998055;28;20022;-64
2023/10/12 02:09:34;;;;;;;2.38;1.50;;;23.40;53.70;;;;;;5000188;28;20030;-65
2023/10/12 02:12:09;;;;;;;2.58;1.80;;;23.40;53.70;;;;;;5000593;28;20447;-64
2023/10/12 02:14:39;;;;;;;2.20;1.50;;;23.40;53.70;;;;;;5013764;28;20021;-64
2023/10/12 02:17:05;;;;;;;2.53;1.73;;;23.40;53.70;;;;;;4999011;28;20134;-64
2023/10/12 02:19:42;;;;;;;2.72;1.73;;;23.40;53.70;;;;;;5000681;28;20025;-63
2023/10/12 02:22:18;;;;;;;2.50;1.60;;;23.40;53.70;;;;;;4996390;28;20060;-64
2023/10/12 02:24:50;;;;;;;2.97;1.90;;;23.40;53.70;;;;;;5002045;28;20144;-64
2023/10/12 02:27:16;;;;;;;2.97;1.73;;;23.40;53.70;;;;;;5001150;28;20514;-64
2023/10/12 02:29:41;;;;;;;2.70;1.70;;;23.40;53.70;;;;;;4999279;28;20030;-64
2023/10/12 02:32:20;;;;;;;3.72;1.77;;;23.40;53.70;;;;;;4999752;28;20062;-64
2023/10/12 02:34:46;;;;;;;2.30;1.50;;;23.40;53.70;;;;;;4998933;28;20042;-65
2023/10/12 02:39:42;;;;;;;2.75;1.73;;;23.40;53.70;;;;;;5000273;28;20014;-65
2023/10/12 02:44:56;;;;;;;2.78;1.60;;;23.40;53.80;;;;;;5000032;28;20038;-65
2023/10/12 02:47:29;;;;;;;2.83;1.90;;;23.40;53.80;;;;;;5013004;28;20110;-65
2023/10/12 02:52:37;;;;;;;2.80;1.60;;;23.30;53.70;;;;;;4998914;28;20079;-65
2023/10/12 02:55:18;;;;;;;2.83;1.60;;;23.40;53.70;;;;;;4999752;28;20041;-65
2023/10/12 02:57:53;;;;;;;2.25;1.45;;;23.40;53.70;;;;;;4997862;28;20420;-65
2023/10/12 03:00:36;;;;;;;3.50;1.70;;;23.40;53.70;;;;;;5000516;28;20104;-65
2023/10/12 03:05:47;;;;;;;2.10;1.45;;;23.40;53.70;;;;;;4998266;28;20034;-65
2023/10/12 03:08:14;;;;;;;2.63;1.88;;;23.30;53.70;;;;;;4998670;28;20034;-65
2023/10/12 03:11:00;;;;;;;2.47;1.63;;;23.30;53.70;;;;;;5000263;28;20026;-65
2023/10/12 03:13:37;;;;;;;2.63;1.60;;;23.30;53.70;;;;;;4999455;28;20030;-65
2023/10/12 03:16:19;;;;;;;2.45;1.70;;;23.30;53.70;;;;;;5000297;28;20490;-65
2023/10/12 03:18:45;;;;;;;2.40;1.40;;;23.30;53.70;;;;;;4998926;28;20055;-65
2023/10/12 03:21:11;;;;;;;2.72;1.67;;;23.30;53.70;;;;;;4999044;28;20050;-65
2023/10/12 03:23:43;;;;;;;2.65;1.70;;;23.30;53.70;;;;;;4998244;28;20026;-65
2023/10/12 03:26:24;;;;;;;2.83;1.60;;;23.30;54.20;;;;;;4999139;28;20485;-65
2023/10/12 03:28:51;;;;;;;2.60;1.70;;;23.30;53.70;;;;;;4997418;28;20463;-65
2023/10/12 03:31:26;;;;;;;2.42;1.50;;;23.30;53.70;;;;;;4997072;28;20041;-65
2023/10/12 03:33:55;;;;;;;2.35;1.50;;;23.30;53.70;;;;;;4996000;28;20489;-65
2023/10/12 03:36:25;;;;;;;2.30;1.60;;;23.30;53.70;;;;;;5000516;28;20363;-65
2023/10/12 03:44:51;;;;;;;3.00;1.48;;;23.30;53.70;;;;;;4988208;28;20512;-66
2023/10/12 03:55:09;;;;;;;2.45;1.50;;;23.20;53.70;;;;;;5004004;28;20029;-67
2023/10/12 04:05:35;;;;;;;2.22;1.48;;;23.20;53.70;;;;;;5001437;28;20042;-67
2023/10/12 04:18:32;;;;;;;2.87;1.67;;;23.20;53.80;;;;;;5000569;28;20031;-67
2023/10/12 04:20:58;;;;;;;2.22;1.40;;;23.20;53.80;;;;;;5001224;28;20390;-67
2023/10/12 04:28:56;;;;;;;2.03;1.40;;;23.20;53.80;;;;;;4998063;28;20050;-67
2023/10/12 04:41:39;;;;;;;2.30;1.50;;;23.20;53.80;;;;;;5002588;28;20490;-64
2023/10/12 04:47:11;;;;;;;2.10;1.42;;;23.20;53.80;;;;;;4999593;28;20495;-64
2023/10/12 04:57:26;;;;;;;2.65;1.67;;;23.20;53.80;;;;;;5001981;28;20049;-68
2023/10/12 05:00:11;;;;;;;2.28;1.50;;;23.20;53.80;;;;;;4997288;28;20030;-68
2023/10/12 05:05:54;;;;;;;2.70;1.65;;;23.10;53.80;;;;;;5000536;28;20034;-68
2023/10/12 05:08:02;;;;;;;2.67;1.50;;;23.10;53.80;;;;;;5000321;28;20039;-68
2023/10/12 05:10:31;;;;;;;2.22;1.60;;;23.10;53.80;;;;;;5002871;28;20025;-68
2023/10/12 05:13:04;;;;;;;2.08;1.40;;;23.10;53.80;;;;;;4998794;28;20038;-68
2023/10/12 05:15:46;;;;;;;2.88;1.70;;;23.10;53.80;;;;;;5000582;28;20383;-68
2023/10/12 05:18:17;;;;;;;2.65;1.40;;;23.10;53.80;;;;;;5001791;28;20458;-68
2023/10/12 05:20:43;;;;;;;2.40;1.55;;;23.10;53.80;;;;;;4998811;28;20023;-68
2023/10/12 05:23:11;;;;;;;2.40;1.63;;;23.10;53.70;;;;;;5001315;28;20031;-64
2023/10/12 05:28:30;;;;;;;3.05;1.60;;;23.10;53.80;;;;;;5002391;28;20034;-63
2023/10/12 05:31:01;;;;;;;2.42;1.48;;;23.10;53.70;;;;;;5001129;28;20033;-63
2023/10/12 05:35:59;;;;;;;2.30;1.48;;;23.10;53.80;;;;;;5001196;28;20030;-63
2023/10/12 05:38:37;;;;;;;2.63;1.73;;;23.10;53.80;;;;;;5000068;28;20398;-63
2023/10/12 05:41:11;;;;;;;2.17;1.50;;;23.10;53.80;;;;;;5000272;28;20026;-64
2023/10/12 05:43:41;;;;;;;2.45;1.58;;;23.10;53.80;;;;;;5000280;28;20053;-63
2023/10/12 05:46:13;;;;;;;2.70;1.60;;;23.10;53.80;;;;;;5000679;28;20045;-63
2023/10/12 05:48:46;;;;;;;2.90;1.77;;;23.10;53.80;;;;;;5002302;28;20040;-63
2023/10/12 05:51:21;;;;;;;2.38;1.35;;;23.00;53.70;;;;;;4998951;28;20504;-63
2023/10/12 05:54:02;;;;;;;2.22;1.48;;;23.00;53.70;;;;;;4999719;28;20438;-63
2023/10/12 05:56:30;;;;;;;2.90;1.77;;;23.10;53.80;;;;;;4997662;28;20057;-63
2023/10/12 05:58:56;;;;;;;2.72;1.80;;;23.10;53.80;;;;;;5000581;28;20501;-63
2023/10/12 06:01:35;;;;;;;3.22;1.70;;;23.00;53.70;;;;;;4999877;28;20128;-63
2023/10/12 06:04:08;;;;;;;2.38;1.45;;;23.00;53.70;;;;;;4999803;28;20021;-64
2023/10/12 06:06:43;;;;;;;2.40;1.60;;;23.00;53.70;;;;;;5000495;28;20445;-64
2023/10/12 06:09:13;;;;;;;2.72;1.77;;;23.00;53.70;;;;;;4998084;28;20026;-63
2023/10/12 06:11:41;;;;;;;2.67;1.63;;;23.00;53.70;;;;;;4999361;28;20112;-63
2023/10/12 06:14:08;;;;;;;3.13;1.70;;;23.10;53.80;;;;;;4999108;28;20038;-63
2023/10/12 06:16:40;;;;;;;2.67;1.40;;;23.10;53.80;;;;;;5000448;28;20037;-63
2023/10/12 06:19:28;;;;;;;2.60;1.60;;;23.00;53.80;;;;;;4999837;28;20026;-63
2023/10/12 06:21:58;;;;;;;2.70;1.70;;;23.00;53.70;;;;;;4998739;28;20077;-63
2023/10/12 06:24:33;;;;;;;2.13;1.40;;;23.00;53.80;;;;;;4996841;28;20139;-63
2023/10/12 06:29:50;;;;;;;1.98;1.27;;;23.00;53.80;;;;;;5000753;28;20022;-64
2023/10/12 06:32:34;;;;;;;2.38;1.40;;;23.00;53.80;;;;;;5000312;28;20105;-64
2023/10/12 06:40:37;;;;;;;2.20;1.35;;;23.00;53.80;;;;;;5000740;28;20568;-63
2023/10/12 06:45:54;;;;;;;3.17;1.70;;;23.00;53.80;;;;;;4999568;28;20053;-63
2023/10/12 06:51:02;;;;;;;2.35;1.48;;;23.00;53.80;;;;;;4998664;28;20044;-63
2023/10/12 06:53:37;;;;;;;2.53;1.60;;;23.00;53.80;;;;;;4998907;28;20458;-65
2023/10/12 06:56:50;;;;;;;2.50;1.50;;;23.00;53.80;;;;;;5006434;28;20038;-65
2023/10/12 07:04:15;;;;;;;2.10;1.35;;;23.00;53.80;;;;;;4998630;28;20025;-65
2023/10/12 07:07:07;;;;;;;3.05;1.40;;;23.00;53.80;;;;;;4998437;28;20057;-65
2023/10/12 07:09:39;;;;;;;2.45;1.42;;;22.90;53.80;;;;;;4997294;28;20083;-65
2023/10/12 07:12:12;;;;;;;1.92;1.40;;;22.90;53.80;;;;;;4999688;28;20317;-65
2023/10/12 07:14:46;;;;;;;2.30;1.48;;;23.00;53.80;;;;;;4998935;28;20041;-65
2023/10/12 07:17:12;;;;;;;2.33;1.40;;;22.90;53.80;;;;;;5001390;28;20023;-65
2023/10/12 07:19:46;;;;;;;2.92;1.42;;;22.90;53.80;;;;;;5001212;28;20029;-65
2023/10/12 07:22:15;;;;;;;2.00;1.30;;;22.90;53.80;;;;;;4999584;28;20494;-65
2023/10/12 07:24:45;;;;;;;2.50;1.60;;;22.90;53.80;;;;;;5002802;28;20034;-65
2023/10/12 07:27:11;;;;;;;3.00;1.58;;;22.90;53.80;;;;;;5005752;28;20040;-65
2023/10/12 07:29:44;;;;;;;3.60;1.50;;;22.90;53.80;;;;;;5004339;28;20025;-65
2023/10/12 07:34:53;;;;;;;2.25;1.45;;;22.90;53.80;;;;;;5006640;28;20042;-65
2023/10/12 07:37:19;;;;;;;2.55;1.58;;;22.90;53.80;;;;;;5006389;28;20029;-65
2023/10/12 07:39:45;;;;;;;2.60;1.50;;;22.90;53.80;;;;;;5002975;28;20498;-65
2023/10/12 07:42:14;;;;;;;2.55;1.60;;;22.90;53.80;;;;;;5005358;28;20028;-63
2023/10/12 07:44:43;;;;;;;2.88;1.50;;;22.90;53.80;;;;;;5005247;28;20021;-63
2023/10/12 07:47:14;;;;;;;3.08;1.70;;;22.90;53.80;;;;;;5005225;28;20038;-62
2023/10/12 07:49:48;;;;;;;2.58;1.60;;;22.90;54.30;;;;;;5020709;28;20120;-63
2023/10/12 07:52:22;;;;;;;2.35;1.60;;;22.90;53.90;;;;;;5006347;28;20030;-62
2023/10/12 07:57:29;;;;;;;2.65;1.70;;;22.90;53.80;;;;;;5003560;28;20037;-63
2023/10/12 08:13:06;;;;;;;;;;;22.90;53.80;;;;;;5005912;28;20029;-64
2023/10/12 08:16:25;;;;;;;2.28;1.58;;;22.90;53.80;;;;;;5004196;28;20424;-64
2023/10/12 08:21:10;;;;;;;2.88;1.80;;;22.90;53.90;;;;;;5005332;28;20044;-64
2023/10/12 08:23:37;;;;;;;3.45;2.00;;;22.90;53.80;;;;;;5003918;28;20153;-66
2023/10/12 08:26:03;;;;;;;2.95;1.60;;;22.90;53.90;;;;;;5006440;28;20486;-67
2023/10/12 08:28:36;;;;;;;2.63;1.70;;;22.90;53.90;;;;;;5004982;28;20044;-67
2023/10/12 08:31:09;;;;;;;2.70;1.73;;;22.90;53.90;;;;;;5005076;28;20022;-67
2023/10/12 08:33:49;;;;;;;2.67;1.70;;;22.90;53.90;;;;;;5004615;28;20028;-67
2023/10/12 08:38:52;;;;;;;2.40;1.70;;;22.80;53.80;;;;;;5003434;28;20080;-67
2023/10/12 08:41:36;;;;;;;2.65;1.60;;;22.90;53.90;;;;;;4999756;28;20068;-66
2023/10/12 08:44:05;;;;;;;3.25;1.90;;;22.90;53.90;;;;;;5001325;28;20015;-66
2023/10/12 08:46:51;;;;;;;2.80;1.83;;;22.90;53.90;;;;;;5000552;28;20146;-67
2023/10/12 08:49:34;;;;;;;2.50;1.58;;;22.80;53.90;;;;;;5002247;28;20042;-67
2023/10/12 08:52:18;;;;;;;2.58;1.75;;;22.90;54.00;;;;;;5000633;28;20030;-67
2023/10/12 08:54:51;;;;;;;2.90;1.80;;;22.90;53.90;;;;;;5001170;28;20034;-64
2023/10/12 08:57:35;;;;;;;3.00;1.63;;;22.80;53.90;;;;;;5001599;28;20117;-64
2023/10/12 09:00:23;;;;;;;2.63;1.70;;;22.80;53.80;;;;;;5000731;28;20438;-64
2023/10/12 09:03:07;;;;;;;3.63;1.70;;;22.80;53.90;;;;;;4999659;28;20030;-64
2023/10/12 09:05:34;;;;;;;3.55;1.70;;;22.90;53.90;;;;;;5000230;28;20026;-64
2023/10/12 09:13:30;;;;;;;2.55;1.45;;;22.80;53.90;;;;;;4999196;28;20124;-65
2023/10/12 09:15:57;;;;;;;3.15;1.80;;;22.80;53.90;;;;;;5016183;28;20029;-65
2023/10/12 09:18:29;;;;;;;3.13;1.77;;;22.80;53.90;;;;;;5000745;28;20029;-65
2023/10/12 09:21:18;;;;;;;3.00;2.00;;;22.80;53.90;;;;;;5000149;28;20030;-65
2023/10/12 09:23:47;;;;;;;3.20;1.90;;;22.80;53.90;;;;;;5001410;28;20458;-65
2023/10/12 09:26:15;;;;;;;2.50;1.85;;;22.80;53.90;;;;;;4999638;28;20594;-65
2023/10/12 09:31:26;;;;;;;2.55;1.60;;;22.80;53.90;;;;;;5001867;28;20038;-65
2023/10/12 09:36:28;;;;;;;2.47;1.60;;;22.80;53.90;;;;;;4999476;28;20030;-62
2023/10/12 09:39:00;;;;;;;3.00;1.70;;;22.80;53.90;;;;;;4999802;28;20499;-62
2023/10/12 09:41:32;;;;;;;2.35;1.60;;;22.80;53.90;;;;;;4998106;28;20125;-62
2023/10/12 09:44:04;;;;;;;2.78;1.88;;;22.80;53.90;;;;;;5001157;28;20062;-63
2023/10/12 09:46:32;;;;;;;2.75;1.70;;;22.80;53.90;;;;;;5000779;28;20185;-63
2023/10/12 09:49:21;;;;;;;3.20;1.90;;;22.80;53.90;;;;;;5000343;28;20506;-62
2023/10/12 09:51:54;;;;;;;2.60;1.70;;;22.80;53.90;;;;;;5000396;28;20030;-62
2023/10/12 09:54:28;;;;;;;2.80;1.70;;;22.80;53.90;;;;;;4997965;28;20847;-63
2023/10/12 09:57:16;;;;;;;2.67;1.67;;;22.80;53.90;;;;;;5001199;28;20030;-63
2023/10/12 09:59:51;;;;;;;3.20;1.90;;;22.80;53.90;;;;;;5001054;28;20026;-63
2023/10/12 10:02:28;;;;;;;3.30;1.80;;;22.80;53.90;;;;;;4997395;28;20045;-62
2023/10/12 10:07:55;;;;;;;2.78;1.77;;;22.80;53.90;;;;;;5001126;28;20531;-63
2023/10/12 10:10:32;;;;;;;2.55;1.67;;;22.80;53.90;;;;;;4998471;28;20496;-64
2023/10/12 10:13:10;;;;;;;3.08;1.65;;;22.80;53.90;;;;;;4999248;28;20033;-64
2023/10/12 10:15:55;;;;;;;3.05;1.42;;;22.80;53.90;;;;;;4999985;28;20080;-63
2023/10/12 10:18:25;;;;;;;2.90;1.75;;;22.80;54.00;;;;;;4998825;28;20088;-63
2023/10/12 10:20:58;;;;;;;3.78;1.75;;;22.80;54.40;;;;;;5000556;28;20022;-64
2023/10/12 10:23:24;;;;;;;2.92;1.70;;;22.80;53.90;;;;;;5015574;28;20053;-65
2023/10/12 10:26:00;;;;;;;2.45;1.52;;;22.80;53.90;;;;;;5001288;28;20042;-65
2023/10/12 10:28:28;;;;;;;2.67;1.67;;;22.80;53.90;;;;;;5000549;28;20030;-65
2023/10/12 10:30:59;;;;;;;2.92;1.80;;;22.80;53.90;;;;;;4999243;28;20108;-65
2023/10/12 10:33:26;;;;;;;2.75;1.65;;;22.80;53.90;;;;;;4998021;28;20659;-65
2023/10/12 10:36:24;;;;;;;3.17;1.85;;;22.80;53.90;;;;;;4999331;28;20116;-65
2023/10/12 10:38:54;;;;;;;2.65;1.80;;;22.80;53.90;;;;;;4999142;28;20022;-65
2023/10/12 10:41:38;;;;;;;2.83;1.70;;;22.80;53.90;;;;;;4998045;28;20044;-65
2023/10/12 10:44:08;;;;;;;2.53;1.58;;;22.80;53.80;;;;;;4998943;28;20429;-62
2023/10/12 10:46:39;;;;;;;2.63;1.55;;;22.80;53.80;;;;;;4998061;28;20030;-62
2023/10/12 10:49:06;;;;;;;2.78;1.67;;;22.80;53.80;;;;;;4999667;28;20346;-62
2023/10/12 10:51:32;;;;;;;2.40;1.55;;;22.80;53.80;;;;;;5001046;28;20116;-62
2023/10/12 10:53:58;;;;;;;2.88;1.70;;;22.80;53.80;;;;;;4999312;28;20561;-63
2023/10/12 10:56:36;;;;;;;2.65;1.70;;;22.80;53.80;;;;;;4998989;28;20505;-63
2023/10/12 10:59:05;;;;;;;2.78;1.83;;;22.80;53.90;;;;;;4999266;28;20022;-63
2023/10/12 11:01:31;;;;;;;2.55;1.70;;;22.80;53.80;;;;;;4999417;28;20029;-62
2023/10/12 11:04:01;;;;;;;2.58;1.75;;;22.80;53.80;;;;;;4998112;28;20100;-62
2023/10/12 11:06:27;;;;;;;2.63;1.83;;;22.80;53.80;;;;;;4998055;28;20022;-62
2023/10/12 11:11:48;;;;;;;3.03;1.80;;;22.80;53.80;;;;;;4997121;28;20136;-63
2023/10/12 11:14:17;;;;;;;2.67;1.63;;;22.80;53.80;;;;;;5000272;28;20478;-63
2023/10/12 11:16:46;;;;;;;3.08;1.73;;;22.80;53.80;;;;;;4998947;28;20033;-62
2023/10/12 11:19:12;;;;;;;3.30;2.05;;;22.80;54.40;;;;;;4998356;28;20101;-63
2023/10/12 11:21:46;;;;;;;2.60;1.80;;;22.80;53.90;;;;;;4998037;28;20031;-62
2023/10/12 11:24:14;;;;;;;2.42;1.80;;;22.80;53.80;;;;;;4999408;28;20029;-62
2023/10/12 11:26:54;;;;;;;2.40;1.70;;;22.80;53.80;;;;;;4997921;28;20030;-63
2023/10/12 11:29:22;;;;;;;2.70;1.70;;;22.80;53.90;;;;;;4998822;28;20049;-62
2023/10/12 11:32:11;;;;;;;2.80;1.70;;;22.80;53.90;;;;;;4999461;28;20133;-62
2023/10/12 11:34:45;;;;;;;2.45;1.65;;;22.80;53.90;;;;;;4999081;28;20483;-60
2023/10/12 11:37:14;;;;;;;3.00;1.60;;;22.80;53.90;;;;;;4998514;28;20390;-60
2023/10/12 11:39:43;;;;;;;2.85;1.85;;;22.80;53.90;;;;;;4997669;28;20030;-61
2023/10/12 11:42:12;;;;;;;2.72;2.00;;;22.80;53.90;;;;;;4998116;28;20113;-63
2023/10/12 11:44:42;;;;;;;3.15;1.90;;;22.80;54.00;;;;;;4997199;28;20398;-61
2023/10/12 11:47:29;;;;;;;3.40;1.98;;;22.80;54.00;;;;;;4998998;28;20026;-61
2023/10/12 11:49:56;;;;;;;2.50;1.55;;;22.80;54.00;;;;;;4998454;28;20026;-62
2023/10/12 11:52:33;;;;;;;3.45;1.83;;;22.80;54.00;;;;;;4999947;28;20083;-61
2023/10/12 11:55:06;;;;;;;2.95;1.70;;;22.80;54.00;;;;;;4998364;28;20027;-66
2023/10/12 11:57:37;;;;;;;3.00;1.80;;;22.70;53.90;;;;;;4995326;28;20113;-65
2023/10/12 12:00:21;;;;;;;2.78;1.58;;;22.70;54.00;;;;;;4999006;28;20049;-65
2023/10/12 12:02:57;;;;;;;2.40;1.55;;;22.80;54.00;;;;;;4998100;28;20045;-65
2023/10/12 12:05:23;;;;;;;3.58;1.70;;;22.80;54.00;;;;;;4998882;28;20105;-66
2023/10/12 12:07:52;;;;;;;3.17;1.83;;;22.80;54.00;;;;;;4997178;28;20038;-65
2023/10/12 12:13:04;;;;;;;3.00;1.67;;;22.80;54.60;;;;;;5004905;28;20136;-67
2023/10/12 12:15:29;;;;;;;3.03;1.70;;;22.80;54.20;;;;;;5003183;28;20034;-66
2023/10/12 12:17:55;;;;;;;3.25;1.58;;;22.80;54.20;;;;;;5001433;28;20025;-67
2023/10/12 12:20:25;;;;;;;2.38;1.38;;;22.80;54.20;;;;;;5002060;28;20121;-66
2023/10/12 12:22:56;;;;;;;2.88;1.80;;;22.70;54.20;;;;;;5000360;28;20113;-66
2023/10/12 12:25:31;;;;;;;2.72;1.58;;;22.70;54.20;;;;;;5002042;28;20026;-65
2023/10/12 12:28:01;;;;;;;2.75;1.60;;;22.80;54.20;;;;;;4999118;28;20034;-67
2023/10/12 12:30:33;;;;;;;3.05;1.60;;;22.80;54.20;;;;;;5002971;28;20033;-67
2023/10/12 12:33:03;;;;;;;3.90;1.50;;;22.80;54.30;;;;;;5001171;28;20033;-66
2023/10/12 12:35:29;;;;;;;3.42;1.75;;;22.80;54.30;;;;;;5003342;28;20029;-66
2023/10/12 12:38:05;;;;;;;2.72;1.50;;;22.80;54.30;;;;;;5002150;28;20072;-66
2023/10/12 12:40:38;;;;;;;3.00;1.70;;;22.70;54.20;;;;;;5002362;28;20111;-66
2023/10/12 12:43:07;;;;;;;3.65;1.70;;;22.70;54.30;;;;;;5000346;28;20600;-65
2023/10/12 12:45:35;;;;;;;2.88;1.73;;;22.80;54.30;;;;;;5000739;28;20026;-66
2023/10/12 12:48:04;;;;;;;2.72;1.52;;;22.80;54.30;;;;;;5003072;28;20497;-66
2023/10/12 12:50:30;;;;;;;2.90;1.60;;;22.70;54.30;;;;;;5002472;28;20030;-64
2023/10/12 12:52:57;;;;;;;3.00;1.70;;;22.80;54.40;;;;;;5001836;28;20042;-67
2023/10/12 12:55:27;;;;;;;2.72;1.52;;;22.80;54.40;;;;;;5001137;28;20501;-67
2023/10/12 12:57:56;;;;;;;2.88;1.75;;;22.80;54.40;;;;;;4999239;28;20088;-67
2023/10/12 13:00:22;;;;;;;3.23;2.00;;;22.80;54.40;;;;;;5001369;28;20395;-66
2023/10/12 13:02:48;;;;;;;2.92;1.73;;;22.80;54.40;;;;;;5000274;28;20478;-62
2023/10/12 13:05:14;;;;;;;3.03;1.88;;;22.80;54.40;;;;;;4999710;28;20053;-62
2023/10/12 13:07:41;;;;;;;2.92;1.70;;;22.80;54.40;;;;;;4999921;28;20038;-62
2023/10/12 13:10:11;;;;;;;2.58;1.52;;;22.80;54.40;;;;;;4999745;28;20034;-61
2023/10/12 13:12:37;;;;;;;3.08;1.65;;;22.80;54.40;;;;;;4999844;28;20494;-62
2023/10/12 13:15:03;;;;;;;3.58;1.80;;;22.70;54.40;;;;;;5002866;28;20160;-61
2023/10/12 13:17:31;;;;;;;2.78;1.50;;;22.80;54.40;;;;;;5001574;28;20105;-62
2023/10/12 13:20:00;;;;;;;2.60;1.60;;;22.80;54.50;;;;;;4999116;28;20032;-61
2023/10/12 13:22:26;;;;;;;2.88;1.58;;;22.80;54.50;;;;;;5001492;28;20483;-61
2023/10/12 13:24:56;;;;;;;3.00;1.83;;;22.80;55.10;;;;;;4999562;28;20041;-62
2023/10/12 13:27:32;;;;;;;3.60;1.70;;;22.80;54.50;;;;;;5001524;28;20034;-61
2023/10/12 13:30:01;;;;;;;3.00;1.60;;;22.80;54.50;;;;;;5001399;28;20026;-61
2023/10/12 13:32:27;;;;;;;3.97;1.73;;;22.80;54.50;;;;;;5000119;28;20019;-64
2023/10/12 13:34:58;;;;;;;2.83;1.77;;;22.80;54.50;;;;;;5001042;28;20034;-68
2023/10/12 13:37:30;;;;;;;2.35;1.42;;;22.80;54.50;;;;;;5002005;28;20096;-67
2023/10/12 13:39:57;;;;;;;3.03;1.48;;;22.80;54.50;;;;;;4999594;28;20031;-66
2023/10/12 13:42:23;;;;;;;2.97;1.55;;;22.80;54.60;;;;;;4997819;28;20374;-67
2023/10/12 13:44:50;;;;;;;3.42;1.90;;;22.80;54.60;;;;;;5000124;28;20502;-67
2023/10/12 13:47:16;;;;;;;3.45;1.70;;;22.80;54.60;;;;;;4998629;28;20730;-67
2023/10/12 13:49:41;;;;;;;2.50;1.58;;;22.80;55.10;;;;;;4998822;28;20022;-66
2023/10/12 13:52:09;;;;;;;2.60;1.70;;;22.80;54.60;;;;;;4998933;28;20924;-67
2023/10/12 13:54:36;;;;;;;3.83;2.05;;;22.80;54.60;;;;;;4997939;28;20026;-63
2023/10/12 13:57:02;;;;;;;2.58;1.70;;;22.80;54.60;;;;;;4999373;28;20061;-63
2023/10/12 13:59:28;;;;;;;2.78;1.55;;;22.80;54.60;;;;;;5000990;28;20097;-64
2023/10/12 14:01:56;;;;;;;2.40;1.55;;;22.80;54.60;;;;;;4998314;28;20113;-64
2023/10/12 14:04:33;;;;;;;2.75;1.70;;;22.80;54.60;;;;;;4999743;28;20559;-65
2023/10/12 14:07:01;;;;;;;2.78;1.55;;;22.80;54.60;;;;;;4999566;28;20108;-64
2023/10/12 14:09:28;;;;;;;2.70;1.73;;;22.80;54.60;;;;;;4999130;28;20176;-64
2023/10/12 14:11:55;;;;;;;2.75;1.60;;;22.80;54.60;;;;;;4998513;28;20027;-66
2023/10/12 14:14:21;;;;;;;2.80;1.50;;;22.80;55.10;;;;;;5001438;28;20508;-69
2023/10/12 14:16:46;;;;;;;3.80;1.88;;;22.80;54.60;;;;;;5002343;28;20030;-69
2023/10/12 14:19:16;;;;;;;2.65;1.50;;;22.80;54.60;;;;;;5002096;28;20045;-67
2023/10/12 14:21:42;;;;;;;2.50;1.40;;;22.90;54.60;;;;;;5000446;28;20026;-68
2023/10/12 14:24:08;;;;;;;2.88;1.67;;;22.90;54.70;;;;;;4999070;28;20601;-67
2023/10/12 14:26:36;;;;;;;2.75;1.55;;;22.90;54.70;;;;;;4999055;28;20030;-68
2023/10/12 14:29:05;;;;;;;2.40;1.60;;;22.90;54.70;;;;;;4998851;28;20030;-67
2023/10/12 14:31:32;;;;;;;4.25;1.90;;;22.90;54.80;;;;;;4999043;28;20037;-67
2023/10/12 14:33:59;;;;;;;2.78;1.60;;;22.90;54.70;;;;;;5000339;28;20042;-66
2023/10/12 14:36:26;;;;;;;3.15;1.77;;;22.90;54.70;;;;;;4998644;28;20111;-65
2023/10/12 14:38:55;;;;;;;2.72;1.58;;;22.90;54.70;;;;;;5000580;28;20018;-66
2023/10/12 14:41:25;;;;;;;2.75;1.55;;;22.90;54.70;;;;;;5001249;28;20022;-66
2023/10/12 14:43:51;;;;;;;3.17;1.70;;;22.90;54.70;;;;;;4997865;28;20482;-67
2023/10/12 14:46:20;;;;;;;2.50;1.48;;;22.90;54.70;;;;;;4999118;28;20180;-67
2023/10/12 14:48:49;;;;;;;3.40;1.90;;;22.90;55.20;;;;;;4998384;28;20107;-67
2023/10/12 14:51:17;;;;;;;2.95;1.80;;;22.90;54.70;;;;;;5000105;28;20042;-67
2023/10/12 14:53:44;;;;;;;2.83;1.50;;;22.90;54.70;;;;;;4998158;28;20041;-66
2023/10/12 14:56:12;;;;;;;3.10;1.67;;;22.90;54.70;;;;;;4999145;28;20497;-67
2023/10/12 14:58:39;;;;;;;2.90;1.40;;;22.90;55.30;;;;;;4999263;28;20042;-67
2023/10/12 15:01:10;;;;;;;3.08;1.60;;;22.90;54.70;;;;;;4999586;28;20043;-67
2023/10/12 15:03:36;;;;;;;2.75;1.65;;;22.90;54.80;;;;;;4999778;28;20045;-66
2023/10/12 15:06:02;;;;;;;2.47;1.42;;;22.90;54.70;;;;;;5000690;28;20112;-67
2023/10/12 15:08:28;;;;;;;2.88;1.67;;;22.90;54.80;;;;;;4998494;28;20030;-67
2023/10/12 15:10:55;;;;;;;2.35;1.52;;;22.90;54.70;;;;;;4998337;28;20030;-66
2023/10/12 15:13:23;;;;;;;3.08;1.60;;;22.90;54.70;;;;;;4997629;28;20038;-67
2023/10/12 15:15:49;;;;;;;3.08;1.80;;;22.90;54.80;;;;;;4998480;28;20113;-66
2023/10/12 15:18:19;;;;;;;2.58;1.60;;;22.90;54.80;;;;;;4998393;28;20019;-67
2023/10/12 15:20:48;;;;;;;2.20;1.52;;;22.90;54.80;;;;;;4999124;28;20329;-66
2023/10/12 15:23:16;;;;;;;3.78;1.70;;;22.90;54.70;;;;;;4998281;28;20494;-64
2023/10/12 15:25:42;;;;;;;2.63;1.60;;;22.90;54.80;;;;;;5001054;28;20026;-64
2023/10/12 15:28:09;;;;;;;3.35;1.60;;;22.90;55.20;;;;;;4997895;28;20040;-64
2023/10/12 15:30:36;;;;;;;2.92;1.40;;;22.90;54.70;;;;;;5000971;28;20037;-63
2023/10/12 15:33:04;;;;;;;3.20;1.60;;;22.90;54.70;;;;;;4998892;28;20493;-64
2023/10/12 15:35:30;;;;;;;3.45;1.70;;;22.90;54.70;;;;;;5000661;28;20458;-64
2023/10/12 15:37:57;;;;;;;2.97;1.65;;;22.90;54.70;;;;;;4999245;28;20042;-64